sensor_id;sensor_type;location;lat;lon;timestamp;P1;durP1;ratioP1;P2;durP2;ratioP2
17965;SDS011;9108;53.204;10.424;2022-10-14T00:00:13;46.05;;;17.80;;
17965;SDS011;9108;53.204;10.424;2022-10-14T00:02:40;48.43;;;18.67;;
17965;SDS011;9108;53.204;10.424;2022-10-14T00:05:07;48.00;;;19.65;;
17965;SDS011;9108;53.204;10.424;2022-10-14T00:07:35;47.97;;;18.95;;
17965;SDS011;9108;53.204;10.424;2022-10-14T00:10:02;46.43;;;19.73;;
17965;SDS011;9108;53.204;10.424;2022-10-14T00:12:30;44.08;;;19.33;;
17965;SDS011;9108;53.204;10.424;2022-10-14T00:14:57;47.20;;;19.30;;
17965;SDS011;9108;53.204;10.424;2022-10-14T00:17:25;52.47;;;19.65;;
17965;SDS011;9108;53.204;10.424;2022-10-14T00:19:52;49.53;;;19.13;;
17965;SDS011;9108;53.204;10.424;2022-10-14T00:22:19;50.42;;;20.58;;
17965;SDS011;9108;53.204;10.424;2022-10-14T00:24:47;48.85;;;20.30;;
17965;SDS011;9108;53.204;10.424;2022-10-14T00:27:14;51.78;;;20.40;;
17965;SDS011;9108;53.204;10.424;2022-10-14T00:29:41;54.57;;;21.07;;
17965;SDS011;9108;53.204;10.424;2022-10-14T00:32:08;54.75;;;20.88;;
17965;SDS011;9108;53.204;10.424;2022-10-14T00:34:37;51.47;;;20.38;;
17965;SDS011;9108;53.204;10.424;2022-10-14T00:37:04;51.72;;;19.92;;
17965;SDS011;9108;53.204;10.424;2022-10-14T00:39:31;48.10;;;19.95;;
17965;SDS011;9108;53.204;10.424;2022-10-14T00:41:59;49.13;;;19.20;;
17965;SDS011;9108;53.204;10.424;2022-10-14T00:47:27;48.83;;;20.00;;
17965;SDS011;9108;53.204;10.424;2022-10-14T00:49:55;52.00;;;20.40;;
17965;SDS011;9108;53.204;10.424;2022-10-14T00:52:23;57.92;;;21.75;;
17965;SDS011;9108;53.204;10.424;2022-10-14T00:54:51;53.30;;;21.10;;
17965;SDS011;9108;53.204;10.424;2022-10-14T00:57:19;56.92;;;21.80;;
17965;SDS011;9108;53.204;10.424;2022-10-14T00:59:47;54.35;;;21.38;;
17965;SDS011;9108;53.204;10.424;2022-10-14T01:02:14;60.47;;;22.60;;
17965;SDS011;9108;53.204;10.424;2022-10-14T01:04:42;57.93;;;22.60;;
17965;SDS011;9108;53.204;10.424;2022-10-14T01:07:13;54.80;;;21.50;;
17965;SDS011;9108;53.204;10.424;2022-10-14T01:09:43;57.97;;;22.55;;
17965;SDS011;9108;53.204;10.424;2022-10-14T01:12:15;55.97;;;22.08;;
17965;SDS011;9108;53.204;10.424;2022-10-14T01:14:47;52.08;;;21.48;;
17965;SDS011;9108;53.204;10.424;2022-10-14T01:17:18;51.07;;;20.67;;
17965;SDS011;9108;53.204;10.424;2022-10-14T01:19:51;53.75;;;21.52;;
17965;SDS011;9108;53.204;10.424;2022-10-14T01:22:27;56.50;;;21.05;;
17965;SDS011;9108;53.204;10.424;2022-10-14T01:25:00;55.35;;;22.25;;
17965;SDS011;9108;53.204;10.424;2022-10-14T01:27:35;58.92;;;22.35;;
17965;SDS011;9108;53.204;10.424;2022-10-14T01:30:08;56.53;;;21.33;;
17965;SDS011;9108;53.204;10.424;2022-10-14T01:32:39;57.92;;;21.88;;
17965;SDS011;9108;53.204;10.424;2022-10-14T01:35:10;54.22;;;21.63;;
17965;SDS011;9108;53.204;10.424;2022-10-14T01:37:44;51.23;;;20.53;;
17965;SDS011;9108;53.204;10.424;2022-10-14T01:40:16;52.10;;;20.20;;
17965;SDS011;9108;53.204;10.424;2022-10-14T01:42:44;51.75;;;20.88;;
17965;SDS011;9108;53.204;10.424;2022-10-14T01:45:14;55.50;;;21.17;;
17965;SDS011;9108;53.204;10.424;2022-10-14T01:47:42;59.63;;;21.90;;
17965;SDS011;9108;53.204;10.424;2022-10-14T01:50:11;55.28;;;21.23;;
17965;SDS011;9108;53.204;10.424;2022-10-14T01:52:41;59.63;;;21.92;;
17965;SDS011;9108;53.204;10.424;2022-10-14T01:55:10;54.28;;;21.45;;
17965;SDS011;9108;53.204;10.424;2022-10-14T01:57:40;56.15;;;21.13;;
17965;SDS011;9108;53.204;10.424;2022-10-14T02:00:07;50.95;;;20.60;;
17965;SDS011;9108;53.204;10.424;2022-10-14T02:02:37;54.03;;;21.73;;
17965;SDS011;9108;53.204;10.424;2022-10-14T02:05:04;54.08;;;21.08;;
17965;SDS011;9108;53.204;10.424;2022-10-14T02:07:33;53.20;;;21.20;;
17965;SDS011;9108;53.204;10.424;2022-10-14T02:10:05;47.70;;;19.25;;
17965;SDS011;9108;53.204;10.424;2022-10-14T02:12:38;47.08;;;19.88;;
17965;SDS011;9108;53.204;10.424;2022-10-14T02:15:08;49.30;;;19.60;;
17965;SDS011;9108;53.204;10.424;2022-10-14T02:17:40;51.78;;;19.92;;
17965;SDS011;9108;53.204;10.424;2022-10-14T02:20:19;54.60;;;21.40;;
17965;SDS011;9108;53.204;10.424;2022-10-14T02:22:49;57.30;;;21.55;;
17965;SDS011;9108;53.204;10.424;2022-10-14T02:25:18;51.80;;;20.58;;
17965;SDS011;9108;53.204;10.424;2022-10-14T02:27:47;54.15;;;21.75;;
17965;SDS011;9108;53.204;10.424;2022-10-14T02:30:15;48.97;;;20.20;;
17965;SDS011;9108;53.204;10.424;2022-10-14T02:32:44;49.00;;;20.13;;
17965;SDS011;9108;53.204;10.424;2022-10-14T02:35:12;43.73;;;19.17;;
17965;SDS011;9108;53.204;10.424;2022-10-14T02:37:41;47.35;;;19.90;;
17965;SDS011;9108;53.204;10.424;2022-10-14T02:40:10;49.67;;;19.80;;
17965;SDS011;9108;53.204;10.424;2022-10-14T02:42:37;50.55;;;19.98;;
17965;SDS011;9108;53.204;10.424;2022-10-14T02:45:05;50.63;;;19.83;;
17965;SDS011;9108;53.204;10.424;2022-10-14T02:47:32;44.47;;;19.00;;
17965;SDS011;9108;53.204;10.424;2022-10-14T02:50:01;50.88;;;19.65;;
17965;SDS011;9108;53.204;10.424;2022-10-14T02:52:28;43.75;;;19.00;;
17965;SDS011;9108;53.204;10.424;2022-10-14T02:54:55;46.42;;;18.88;;
17965;SDS011;9108;53.204;10.424;2022-10-14T02:57:22;46.07;;;19.27;;
17965;SDS011;9108;53.204;10.424;2022-10-14T02:59:49;45.83;;;19.13;;
17965;SDS011;9108;53.204;10.424;2022-10-14T03:02:16;47.15;;;19.27;;
17965;SDS011;9108;53.204;10.424;2022-10-14T03:04:43;47.70;;;19.02;;
17965;SDS011;9108;53.204;10.424;2022-10-14T03:07:12;46.08;;;18.63;;
17965;SDS011;9108;53.204;10.424;2022-10-14T03:09:39;47.93;;;19.93;;
17965;SDS011;9108;53.204;10.424;2022-10-14T03:12:06;50.88;;;19.75;;
17965;SDS011;9108;53.204;10.424;2022-10-14T03:14:33;46.28;;;19.52;;
17965;SDS011;9108;53.204;10.424;2022-10-14T03:17:00;45.13;;;19.75;;
17965;SDS011;9108;53.204;10.424;2022-10-14T03:19:27;49.77;;;20.27;;
17965;SDS011;9108;53.204;10.424;2022-10-14T03:21:54;46.55;;;19.42;;
17965;SDS011;9108;53.204;10.424;2022-10-14T03:24:23;44.35;;;19.73;;
17965;SDS011;9108;53.204;10.424;2022-10-14T03:26:50;49.28;;;20.30;;
17965;SDS011;9108;53.204;10.424;2022-10-14T03:29:17;42.92;;;18.85;;
17965;SDS011;9108;53.204;10.424;2022-10-14T03:31:44;47.33;;;19.43;;
17965;SDS011;9108;53.204;10.424;2022-10-14T03:34:11;42.00;;;18.50;;
17965;SDS011;9108;53.204;10.424;2022-10-14T03:36:38;42.17;;;17.98;;
17965;SDS011;9108;53.204;10.424;2022-10-14T03:39:05;45.42;;;19.23;;
17965;SDS011;9108;53.204;10.424;2022-10-14T03:41:34;42.92;;;18.10;;
17965;SDS011;9108;53.204;10.424;2022-10-14T03:44:01;38.15;;;17.88;;
17965;SDS011;9108;53.204;10.424;2022-10-14T03:46:28;40.40;;;17.85;;
17965;SDS011;9108;53.204;10.424;2022-10-14T03:48:56;39.58;;;17.63;;
17965;SDS011;9108;53.204;10.424;2022-10-14T03:51:25;40.75;;;18.30;;
17965;SDS011;9108;53.204;10.424;2022-10-14T03:53:52;35.28;;;16.55;;
17965;SDS011;9108;53.204;10.424;2022-10-14T03:56:19;41.03;;;18.30;;
17965;SDS011;9108;53.204;10.424;2022-10-14T03:58:48;38.05;;;17.00;;
17965;SDS011;9108;53.204;10.424;2022-10-14T04:01:16;34.05;;;16.58;;
17965;SDS011;9108;53.204;10.424;2022-10-14T04:03:46;40.50;;;17.38;;
17965;SDS011;9108;53.204;10.424;2022-10-14T04:06:15;42.78;;;18.23;;
17965;SDS011;9108;53.204;10.424;2022-10-14T04:08:42;46.90;;;19.80;;
17965;SDS011;9108;53.204;10.424;2022-10-14T04:11:09;44.65;;;19.60;;
17965;SDS011;9108;53.204;10.424;2022-10-14T04:13:36;50.20;;;20.60;;
17965;SDS011;9108;53.204;10.424;2022-10-14T04:16:05;51.30;;;20.48;;
17965;SDS011;9108;53.204;10.424;2022-10-14T04:18:33;51.67;;;20.90;;
17965;SDS011;9108;53.204;10.424;2022-10-14T04:21:00;54.55;;;20.58;;
17965;SDS011;9108;53.204;10.424;2022-10-14T04:23:28;51.28;;;20.48;;
17965;SDS011;9108;53.204;10.424;2022-10-14T04:25:55;56.38;;;21.63;;
17965;SDS011;9108;53.204;10.424;2022-10-14T04:28:22;57.45;;;21.65;;
17965;SDS011;9108;53.204;10.424;2022-10-14T04:30:49;55.15;;;20.98;;
17965;SDS011;9108;53.204;10.424;2022-10-14T04:33:17;52.53;;;20.60;;
17965;SDS011;9108;53.204;10.424;2022-10-14T04:35:44;58.28;;;21.15;;
17965;SDS011;9108;53.204;10.424;2022-10-14T04:38:11;60.22;;;21.58;;
17965;SDS011;9108;53.204;10.424;2022-10-14T04:40:38;55.35;;;20.65;;
17965;SDS011;9108;53.204;10.424;2022-10-14T04:43:06;51.83;;;20.63;;
17965;SDS011;9108;53.204;10.424;2022-10-14T04:45:33;60.10;;;21.67;;
17965;SDS011;9108;53.204;10.424;2022-10-14T04:48:00;53.58;;;20.83;;
17965;SDS011;9108;53.204;10.424;2022-10-14T04:50:28;61.13;;;22.40;;
17965;SDS011;9108;53.204;10.424;2022-10-14T04:52:55;60.33;;;23.07;;
17965;SDS011;9108;53.204;10.424;2022-10-14T04:55:22;55.22;;;21.42;;
17965;SDS011;9108;53.204;10.424;2022-10-14T04:57:49;49.55;;;21.15;;
17965;SDS011;9108;53.204;10.424;2022-10-14T05:00:16;51.33;;;21.60;;
17965;SDS011;9108;53.204;10.424;2022-10-14T05:02:44;54.03;;;21.23;;
17965;SDS011;9108;53.204;10.424;2022-10-14T05:05:11;49.97;;;20.73;;
17965;SDS011;9108;53.204;10.424;2022-10-14T05:07:40;51.50;;;20.70;;
17965;SDS011;9108;53.204;10.424;2022-10-14T05:10:07;51.20;;;20.75;;
17965;SDS011;9108;53.204;10.424;2022-10-14T05:12:35;50.45;;;20.02;;
17965;SDS011;9108;53.204;10.424;2022-10-14T05:15:02;49.15;;;19.85;;
17965;SDS011;9108;53.204;10.424;2022-10-14T05:17:30;58.50;;;21.97;;
17965;SDS011;9108;53.204;10.424;2022-10-14T05:19:57;55.72;;;21.23;;
17965;SDS011;9108;53.204;10.424;2022-10-14T05:22:24;65.63;;;22.83;;
17965;SDS011;9108;53.204;10.424;2022-10-14T05:24:53;68.38;;;24.67;;
17965;SDS011;9108;53.204;10.424;2022-10-14T05:27:20;71.60;;;24.85;;
17965;SDS011;9108;53.204;10.424;2022-10-14T05:29:47;69.60;;;23.60;;
17965;SDS011;9108;53.204;10.424;2022-10-14T05:32:14;74.22;;;25.02;;
17965;SDS011;9108;53.204;10.424;2022-10-14T05:34:41;72.40;;;24.75;;
17965;SDS011;9108;53.204;10.424;2022-10-14T05:37:09;67.55;;;24.02;;
17965;SDS011;9108;53.204;10.424;2022-10-14T05:39:36;66.90;;;23.60;;
17965;SDS011;9108;53.204;10.424;2022-10-14T05:42:04;59.13;;;23.02;;
17965;SDS011;9108;53.204;10.424;2022-10-14T05:44:31;62.63;;;22.20;;
17965;SDS011;9108;53.204;10.424;2022-10-14T05:46:58;55.63;;;21.13;;
17965;SDS011;9108;53.204;10.424;2022-10-14T05:49:25;58.25;;;22.08;;
17965;SDS011;9108;53.204;10.424;2022-10-14T05:51:52;55.33;;;21.35;;
17965;SDS011;9108;53.204;10.424;2022-10-14T05:54:20;58.63;;;21.88;;
17965;SDS011;9108;53.204;10.424;2022-10-14T05:56:47;53.83;;;21.92;;
17965;SDS011;9108;53.204;10.424;2022-10-14T05:59:15;62.28;;;23.45;;
17965;SDS011;9108;53.204;10.424;2022-10-14T06:01:42;51.30;;;21.35;;
17965;SDS011;9108;53.204;10.424;2022-10-14T06:04:13;61.17;;;22.95;;
17965;SDS011;9108;53.204;10.424;2022-10-14T06:06:42;58.88;;;22.73;;
17965;SDS011;9108;53.204;10.424;2022-10-14T06:09:09;68.68;;;24.13;;
17965;SDS011;9108;53.204;10.424;2022-10-14T06:11:36;63.03;;;23.70;;
17965;SDS011;9108;53.204;10.424;2022-10-14T06:14:03;62.95;;;23.27;;
17965;SDS011;9108;53.204;10.424;2022-10-14T06:16:31;59.72;;;23.10;;
17965;SDS011;9108;53.204;10.424;2022-10-14T06:18:58;58.88;;;22.08;;
17965;SDS011;9108;53.204;10.424;2022-10-14T06:21:26;64.68;;;24.30;;
17965;SDS011;9108;53.204;10.424;2022-10-14T06:23:53;62.72;;;23.45;;
17965;SDS011;9108;53.204;10.424;2022-10-14T06:26:20;67.88;;;25.02;;
17965;SDS011;9108;53.204;10.424;2022-10-14T06:28:47;70.30;;;25.90;;
17965;SDS011;9108;53.204;10.424;2022-10-14T06:31:14;74.30;;;26.13;;
17965;SDS011;9108;53.204;10.424;2022-10-14T06:33:42;75.22;;;26.30;;
17965;SDS011;9108;53.204;10.424;2022-10-14T06:36:09;82.63;;;27.77;;
17965;SDS011;9108;53.204;10.424;2022-10-14T06:38:37;88.65;;;28.63;;
17965;SDS011;9108;53.204;10.424;2022-10-14T06:41:04;85.03;;;27.88;;
17965;SDS011;9108;53.204;10.424;2022-10-14T06:43:31;75.97;;;27.38;;
17965;SDS011;9108;53.204;10.424;2022-10-14T06:45:59;80.78;;;28.05;;
17965;SDS011;9108;53.204;10.424;2022-10-14T06:48:27;77.75;;;26.75;;
17965;SDS011;9108;53.204;10.424;2022-10-14T06:50:56;83.53;;;28.45;;
17965;SDS011;9108;53.204;10.424;2022-10-14T06:53:24;84.22;;;29.35;;
17965;SDS011;9108;53.204;10.424;2022-10-14T06:55:55;93.57;;;30.07;;
17965;SDS011;9108;53.204;10.424;2022-10-14T06:58:22;87.50;;;29.05;;
17965;SDS011;9108;53.204;10.424;2022-10-14T07:00:49;90.93;;;29.48;;
17965;SDS011;9108;53.204;10.424;2022-10-14T07:03:17;82.28;;;28.88;;
17965;SDS011;9108;53.204;10.424;2022-10-14T07:05:44;89.60;;;29.75;;
17965;SDS011;9108;53.204;10.424;2022-10-14T07:08:12;86.95;;;29.77;;
17965;SDS011;9108;53.204;10.424;2022-10-14T07:10:39;80.43;;;28.27;;
17965;SDS011;9108;53.204;10.424;2022-10-14T07:13:06;81.47;;;28.45;;
17965;SDS011;9108;53.204;10.424;2022-10-14T07:15:33;78.53;;;29.13;;
17965;SDS011;9108;53.204;10.424;2022-10-14T07:18:00;81.10;;;28.10;;
17965;SDS011;9108;53.204;10.424;2022-10-14T07:20:29;77.57;;;28.57;;
17965;SDS011;9108;53.204;10.424;2022-10-14T07:22:56;65.32;;;26.55;;
17965;SDS011;9108;53.204;10.424;2022-10-14T07:25:25;67.47;;;26.92;;
17965;SDS011;9108;53.204;10.424;2022-10-14T07:27:52;66.32;;;26.10;;
17965;SDS011;9108;53.204;10.424;2022-10-14T07:30:19;69.65;;;26.33;;
17965;SDS011;9108;53.204;10.424;2022-10-14T07:32:46;60.90;;;26.53;;
17965;SDS011;9108;53.204;10.424;2022-10-14T07:35:13;60.60;;;25.52;;
17965;SDS011;9108;53.204;10.424;2022-10-14T07:37:40;54.90;;;23.73;;
17965;SDS011;9108;53.204;10.424;2022-10-14T07:40:08;55.23;;;24.67;;
17965;SDS011;9108;53.204;10.424;2022-10-14T07:42:36;57.55;;;24.80;;
17965;SDS011;9108;53.204;10.424;2022-10-14T07:45:04;60.78;;;25.75;;
17965;SDS011;9108;53.204;10.424;2022-10-14T07:47:31;66.57;;;26.80;;
17965;SDS011;9108;53.204;10.424;2022-10-14T07:49:59;68.30;;;26.85;;
17965;SDS011;9108;53.204;10.424;2022-10-14T07:52:26;62.78;;;26.13;;
17965;SDS011;9108;53.204;10.424;2022-10-14T07:54:54;60.58;;;25.80;;
17965;SDS011;9108;53.204;10.424;2022-10-14T07:57:21;57.78;;;25.45;;
17965;SDS011;9108;53.204;10.424;2022-10-14T07:59:49;55.95;;;24.90;;
17965;SDS011;9108;53.204;10.424;2022-10-14T08:02:17;58.58;;;25.13;;
17965;SDS011;9108;53.204;10.424;2022-10-14T08:04:44;48.80;;;23.05;;
17965;SDS011;9108;53.204;10.424;2022-10-14T08:07:11;51.83;;;23.67;;
17965;SDS011;9108;53.204;10.424;2022-10-14T08:09:39;55.08;;;23.80;;
17965;SDS011;9108;53.204;10.424;2022-10-14T08:12:06;54.38;;;24.05;;
17965;SDS011;9108;53.204;10.424;2022-10-14T08:14:33;51.30;;;24.47;;
17965;SDS011;9108;53.204;10.424;2022-10-14T08:17:02;50.83;;;23.67;;
17965;SDS011;9108;53.204;10.424;2022-10-14T08:19:29;53.47;;;24.88;;
17965;SDS011;9108;53.204;10.424;2022-10-14T08:21:56;52.17;;;24.10;;
17965;SDS011;9108;53.204;10.424;2022-10-14T08:24:23;53.35;;;24.73;;
17965;SDS011;9108;53.204;10.424;2022-10-14T08:26:50;51.65;;;23.88;;
17965;SDS011;9108;53.204;10.424;2022-10-14T08:29:18;54.65;;;24.48;;
17965;SDS011;9108;53.204;10.424;2022-10-14T08:31:47;53.55;;;24.73;;
17965;SDS011;9108;53.204;10.424;2022-10-14T08:34:15;57.95;;;25.73;;
17965;SDS011;9108;53.204;10.424;2022-10-14T08:36:45;59.00;;;25.00;;
17965;SDS011;9108;53.204;10.424;2022-10-14T08:39:12;59.67;;;25.48;;
17965;SDS011;9108;53.204;10.424;2022-10-14T08:41:44;54.10;;;24.70;;
17965;SDS011;9108;53.204;10.424;2022-10-14T08:44:19;55.03;;;24.70;;
17965;SDS011;9108;53.204;10.424;2022-10-14T08:46:49;52.13;;;23.47;;
17965;SDS011;9108;53.204;10.424;2022-10-14T08:49:20;55.00;;;23.77;;
17965;SDS011;9108;53.204;10.424;2022-10-14T08:51:50;49.20;;;23.10;;
17965;SDS011;9108;53.204;10.424;2022-10-14T08:54:22;48.33;;;22.97;;
17965;SDS011;9108;53.204;10.424;2022-10-14T08:56:52;45.28;;;21.90;;
17965;SDS011;9108;53.204;10.424;2022-10-14T08:59:19;44.55;;;21.45;;
17965;SDS011;9108;53.204;10.424;2022-10-14T09:01:48;40.97;;;19.88;;
17965;SDS011;9108;53.204;10.424;2022-10-14T09:04:18;37.83;;;19.42;;
17965;SDS011;9108;53.204;10.424;2022-10-14T09:06:46;34.30;;;17.33;;
17965;SDS011;9108;53.204;10.424;2022-10-14T09:09:17;33.33;;;17.70;;
17965;SDS011;9108;53.204;10.424;2022-10-14T09:11:48;31.23;;;16.63;;
17965;SDS011;9108;53.204;10.424;2022-10-14T09:14:16;31.05;;;16.05;;
17965;SDS011;9108;53.204;10.424;2022-10-14T09:16:44;30.00;;;16.52;;
17965;SDS011;9108;53.204;10.424;2022-10-14T09:19:13;26.27;;;14.82;;
17965;SDS011;9108;53.204;10.424;2022-10-14T09:21:44;29.10;;;15.55;;
17965;SDS011;9108;53.204;10.424;2022-10-14T09:24:12;27.33;;;14.63;;
17965;SDS011;9108;53.204;10.424;2022-10-14T09:26:41;26.58;;;14.38;;
17965;SDS011;9108;53.204;10.424;2022-10-14T09:29:13;27.15;;;14.45;;
17965;SDS011;9108;53.204;10.424;2022-10-14T09:31:44;27.70;;;14.98;;
17965;SDS011;9108;53.204;10.424;2022-10-14T09:34:12;25.67;;;14.23;;
17965;SDS011;9108;53.204;10.424;2022-10-14T09:36:43;25.77;;;13.82;;
17965;SDS011;9108;53.204;10.424;2022-10-14T09:39:11;24.00;;;13.67;;
17965;SDS011;9108;53.204;10.424;2022-10-14T09:41:38;24.70;;;13.30;;
17965;SDS011;9108;53.204;10.424;2022-10-14T09:44:12;20.97;;;12.80;;
17965;SDS011;9108;53.204;10.424;2022-10-14T09:46:42;19.23;;;11.82;;
17965;SDS011;9108;53.204;10.424;2022-10-14T09:49:12;20.08;;;11.77;;
17965;SDS011;9108;53.204;10.424;2022-10-14T09:51:41;19.55;;;11.18;;
17965;SDS011;9108;53.204;10.424;2022-10-14T09:54:22;17.67;;;10.60;;
17965;SDS011;9108;53.204;10.424;2022-10-14T09:56:56;16.08;;;10.55;;
17965;SDS011;9108;53.204;10.424;2022-10-14T09:59:24;19.52;;;11.00;;
17965;SDS011;9108;53.204;10.424;2022-10-14T10:01:52;19.98;;;11.23;;
17965;SDS011;9108;53.204;10.424;2022-10-14T10:04:25;19.70;;;11.15;;
17965;SDS011;9108;53.204;10.424;2022-10-14T10:06:53;19.60;;;10.82;;
17965;SDS011;9108;53.204;10.424;2022-10-14T10:09:22;19.13;;;11.45;;
17965;SDS011;9108;53.204;10.424;2022-10-14T10:11:49;21.15;;;12.15;;
17965;SDS011;9108;53.204;10.424;2022-10-14T10:14:18;21.13;;;11.80;;
17965;SDS011;9108;53.204;10.424;2022-10-14T10:16:47;20.13;;;11.70;;
17965;SDS011;9108;53.204;10.424;2022-10-14T10:19:19;19.43;;;10.97;;
17965;SDS011;9108;53.204;10.424;2022-10-14T10:21:46;21.38;;;11.57;;
17965;SDS011;9108;53.204;10.424;2022-10-14T10:24:16;19.50;;;10.65;;
17965;SDS011;9108;53.204;10.424;2022-10-14T10:26:48;18.47;;;10.50;;
17965;SDS011;9108;53.204;10.424;2022-10-14T10:29:22;16.65;;;9.70;;
17965;SDS011;9108;53.204;10.424;2022-10-14T10:31:58;15.73;;;9.40;;
17965;SDS011;9108;53.204;10.424;2022-10-14T10:34:45;15.98;;;9.98;;
17965;SDS011;9108;53.204;10.424;2022-10-14T10:37:21;18.13;;;10.40;;
17965;SDS011;9108;53.204;10.424;2022-10-14T10:39:51;15.90;;;9.30;;
17965;SDS011;9108;53.204;10.424;2022-10-14T10:42:24;16.83;;;10.32;;
17965;SDS011;9108;53.204;10.424;2022-10-14T10:44:57;15.45;;;9.30;;
17965;SDS011;9108;53.204;10.424;2022-10-14T10:47:31;14.27;;;9.13;;
17965;SDS011;9108;53.204;10.424;2022-10-14T10:50:02;14.13;;;8.80;;
17965;SDS011;9108;53.204;10.424;2022-10-14T10:52:37;14.98;;;9.00;;
17965;SDS011;9108;53.204;10.424;2022-10-14T10:55:09;15.38;;;9.20;;
17965;SDS011;9108;53.204;10.424;2022-10-14T10:57:44;17.02;;;9.55;;
17965;SDS011;9108;53.204;10.424;2022-10-14T11:00:12;15.10;;;9.05;;
17965;SDS011;9108;53.204;10.424;2022-10-14T11:05:55;14.43;;;8.30;;
17965;SDS011;9108;53.204;10.424;2022-10-14T11:11:27;14.52;;;8.10;;
17965;SDS011;9108;53.204;10.424;2022-10-14T11:14:18;14.65;;;8.15;;
17965;SDS011;9108;53.204;10.424;2022-10-14T11:16:49;12.05;;;7.03;;
17965;SDS011;9108;53.204;10.424;2022-10-14T11:19:19;14.45;;;7.80;;
17965;SDS011;9108;53.204;10.424;2022-10-14T11:21:49;11.77;;;7.40;;
17965;SDS011;9108;53.204;10.424;2022-10-14T11:24:21;10.98;;;6.50;;
17965;SDS011;9108;53.204;10.424;2022-10-14T11:26:52;13.15;;;7.05;;
17965;SDS011;9108;53.204;10.424;2022-10-14T11:29:36;11.43;;;6.53;;
17965;SDS011;9108;53.204;10.424;2022-10-14T11:32:08;13.50;;;6.88;;
17965;SDS011;9108;53.204;10.424;2022-10-14T11:34:42;10.60;;;6.53;;
17965;SDS011;9108;53.204;10.424;2022-10-14T11:37:15;10.07;;;5.93;;
17965;SDS011;9108;53.204;10.424;2022-10-14T11:39:45;11.88;;;6.60;;
17965;SDS011;9108;53.204;10.424;2022-10-14T11:42:17;12.85;;;6.53;;
17965;SDS011;9108;53.204;10.424;2022-10-14T11:44:55;11.55;;;6.10;;
17965;SDS011;9108;53.204;10.424;2022-10-14T11:47:27;13.20;;;6.37;;
17965;SDS011;9108;53.204;10.424;2022-10-14T11:49:56;11.70;;;6.20;;
17965;SDS011;9108;53.204;10.424;2022-10-14T11:52:26;11.48;;;5.93;;
17965;SDS011;9108;53.204;10.424;2022-10-14T11:54:54;10.75;;;6.03;;
17965;SDS011;9108;53.204;10.424;2022-10-14T11:57:24;11.82;;;6.03;;
17965;SDS011;9108;53.204;10.424;2022-10-14T11:59:53;11.35;;;6.18;;
17965;SDS011;9108;53.204;10.424;2022-10-14T12:02:40;12.40;;;6.13;;
17965;SDS011;9108;53.204;10.424;2022-10-14T12:05:13;11.13;;;6.35;;
17965;SDS011;9108;53.204;10.424;2022-10-14T12:07:44;10.73;;;6.28;;
17965;SDS011;9108;53.204;10.424;2022-10-14T12:10:16;10.73;;;5.97;;
17965;SDS011;9108;53.204;10.424;2022-10-14T12:12:49;11.77;;;6.30;;
17965;SDS011;9108;53.204;10.424;2022-10-14T12:15:24;10.65;;;6.30;;
17965;SDS011;9108;53.204;10.424;2022-10-14T12:17:52;10.73;;;6.53;;
17965;SDS011;9108;53.204;10.424;2022-10-14T12:20:22;11.10;;;6.35;;
17965;SDS011;9108;53.204;10.424;2022-10-14T12:22:51;11.73;;;6.43;;
17965;SDS011;9108;53.204;10.424;2022-10-14T12:25:20;11.57;;;6.32;;
17965;SDS011;9108;53.204;10.424;2022-10-14T12:27:49;11.75;;;6.57;;
17965;SDS011;9108;53.204;10.424;2022-10-14T12:30:36;12.68;;;6.80;;
17965;SDS011;9108;53.204;10.424;2022-10-14T12:33:04;12.55;;;6.45;;
17965;SDS011;9108;53.204;10.424;2022-10-14T12:38:17;11.55;;;6.30;;
17965;SDS011;9108;53.204;10.424;2022-10-14T12:40:45;11.63;;;6.28;;
17965;SDS011;9108;53.204;10.424;2022-10-14T12:43:14;11.05;;;6.38;;
17965;SDS011;9108;53.204;10.424;2022-10-14T12:45:48;11.85;;;6.47;;
17965;SDS011;9108;53.204;10.424;2022-10-14T12:48:16;10.65;;;6.28;;
17965;SDS011;9108;53.204;10.424;2022-10-14T12:50:43;11.27;;;6.40;;
17965;SDS011;9108;53.204;10.424;2022-10-14T12:53:16;11.00;;;6.32;;
17965;SDS011;9108;53.204;10.424;2022-10-14T12:55:46;11.45;;;6.75;;
17965;SDS011;9108;53.204;10.424;2022-10-14T12:58:21;11.20;;;6.68;;
17965;SDS011;9108;53.204;10.424;2022-10-14T13:00:53;12.45;;;6.78;;
17965;SDS011;9108;53.204;10.424;2022-10-14T13:03:22;10.93;;;6.40;;
17965;SDS011;9108;53.204;10.424;2022-10-14T13:05:51;13.50;;;6.63;;
17965;SDS011;9108;53.204;10.424;2022-10-14T13:08:25;13.25;;;6.93;;
17965;SDS011;9108;53.204;10.424;2022-10-14T13:11:07;12.63;;;7.00;;
17965;SDS011;9108;53.204;10.424;2022-10-14T13:13:45;10.57;;;6.37;;
17965;SDS011;9108;53.204;10.424;2022-10-14T13:18:56;12.32;;;6.80;;
17965;SDS011;9108;53.204;10.424;2022-10-14T13:21:25;12.02;;;7.22;;
17965;SDS011;9108;53.204;10.424;2022-10-14T13:23:55;11.95;;;6.60;;
17965;SDS011;9108;53.204;10.424;2022-10-14T13:26:24;11.80;;;6.60;;
17965;SDS011;9108;53.204;10.424;2022-10-14T13:28:55;12.35;;;6.70;;
17965;SDS011;9108;53.204;10.424;2022-10-14T13:31:25;13.30;;;7.38;;
17965;SDS011;9108;53.204;10.424;2022-10-14T13:34:00;13.45;;;7.30;;
17965;SDS011;9108;53.204;10.424;2022-10-14T13:36:34;10.60;;;6.25;;
17965;SDS011;9108;53.204;10.424;2022-10-14T13:39:02;10.40;;;6.47;;
17965;SDS011;9108;53.204;10.424;2022-10-14T13:41:30;11.85;;;6.70;;
17965;SDS011;9108;53.204;10.424;2022-10-14T13:43:58;10.60;;;6.20;;
17965;SDS011;9108;53.204;10.424;2022-10-14T13:46:27;12.25;;;6.70;;
17965;SDS011;9108;53.204;10.424;2022-10-14T13:48:57;11.52;;;6.53;;
17965;SDS011;9108;53.204;10.424;2022-10-14T13:51:25;11.65;;;6.50;;
17965;SDS011;9108;53.204;10.424;2022-10-14T13:53:54;12.48;;;6.30;;
17965;SDS011;9108;53.204;10.424;2022-10-14T13:56:22;12.43;;;6.57;;
17965;SDS011;9108;53.204;10.424;2022-10-14T13:58:49;11.30;;;6.15;;
17965;SDS011;9108;53.204;10.424;2022-10-14T14:01:17;12.43;;;6.70;;
17965;SDS011;9108;53.204;10.424;2022-10-14T14:03:45;14.85;;;6.57;;
17965;SDS011;9108;53.204;10.424;2022-10-14T14:06:18;9.82;;;6.00;;
17965;SDS011;9108;53.204;10.424;2022-10-14T14:08:46;11.88;;;5.75;;
17965;SDS011;9108;53.204;10.424;2022-10-14T14:11:17;11.40;;;5.80;;
17965;SDS011;9108;53.204;10.424;2022-10-14T14:13:51;10.15;;;5.65;;
17965;SDS011;9108;53.204;10.424;2022-10-14T14:16:20;12.85;;;6.20;;
17965;SDS011;9108;53.204;10.424;2022-10-14T14:18:49;10.80;;;5.95;;
17965;SDS011;9108;53.204;10.424;2022-10-14T14:21:20;12.02;;;5.90;;
17965;SDS011;9108;53.204;10.424;2022-10-14T14:23:48;12.20;;;5.93;;
17965;SDS011;9108;53.204;10.424;2022-10-14T14:26:15;10.30;;;5.63;;
17965;SDS011;9108;53.204;10.424;2022-10-14T14:28:43;10.15;;;5.88;;
17965;SDS011;9108;53.204;10.424;2022-10-14T14:31:12;10.23;;;5.80;;
17965;SDS011;9108;53.204;10.424;2022-10-14T14:33:40;10.50;;;6.18;;
17965;SDS011;9108;53.204;10.424;2022-10-14T14:36:10;11.15;;;5.88;;
17965;SDS011;9108;53.204;10.424;2022-10-14T14:38:43;11.45;;;6.28;;
17965;SDS011;9108;53.204;10.424;2022-10-14T14:41:15;10.98;;;6.00;;
17965;SDS011;9108;53.204;10.424;2022-10-14T14:43:43;12.63;;;6.07;;
17965;SDS011;9108;53.204;10.424;2022-10-14T14:46:11;11.73;;;6.00;;
17965;SDS011;9108;53.204;10.424;2022-10-14T14:48:43;12.85;;;6.22;;
17965;SDS011;9108;53.204;10.424;2022-10-14T14:51:11;11.55;;;6.38;;